Time;durP1;ratioP1;P1;durP2;ratioP2;P2;SDS_P1;SDS_P2;PMS_P1;PMS_P2;Temp;Humidity;BMP_temperature;BMP_pressure;BME280_temperature;BME280_humidity;BME280_pressure;Samples;Min_cycle;Max_cycle;Signal;HPM_P1;HPM_P2
2022/05/24 00:00:46;;;;;;;1.92;1.83;;;17.70;49.50;;;;;;5014596;28;20026;-63
2022/05/24 00:03:11;;;;;;;2.65;2.13;;;17.70;49.60;;;;;;5014688;28;20080;-63
2022/05/24 00:05:39;;;;;;;2.88;2.17;;;17.70;49.60;;;;;;5014369;28;20029;-63
2022/05/24 00:08:06;;;;;;;2.83;1.83;;;17.60;49.50;;;;;;5013110;28;20037;-64
2022/05/24 00:10:32;;;;;;;2.22;2.03;;;17.60;49.50;;;;;;5013419;28;20075;-63
2022/05/24 00:12:59;;;;;;;2.10;1.90;;;17.60;49.60;;;;;;5014547;28;20025;-63
2022/05/24 00:15:29;;;;;;;2.47;2.25;;;17.70;49.70;;;;;;5014377;28;20042;-63
2022/05/24 00:18:05;;;;;;;2.90;2.10;;;17.60;49.70;;;;;;4997378;28;20388;-63
2022/05/24 00:20:37;;;;;;;4.97;2.38;;;17.60;49.70;;;;;;5014232;28;20448;-64
2022/05/24 00:23:03;;;;;;;2.90;1.92;;;17.60;49.70;;;;;;5014308;28;20037;-64
2022/05/24 00:25:31;;;;;;;2.45;2.00;;;17.50;49.70;;;;;;5013927;28;20038;-63
2022/05/24 00:27:57;;;;;;;2.20;2.00;;;17.50;49.70;;;;;;5014519;28;20400;-64
2022/05/24 00:30:23;;;;;;;2.17;2.00;;;17.60;49.80;;;;;;5014163;28;20026;-63
2022/05/24 00:32:49;;;;;;;2.97;2.05;;;17.50;49.80;;;;;;5013858;28;20484;-63
2022/05/24 00:35:16;;;;;;;2.78;2.00;;;17.50;49.80;;;;;;5014195;28;20056;-63
2022/05/24 00:37:43;;;;;;;5.30;2.30;;;17.50;49.90;;;;;;5014051;28;20457;-64
2022/05/24 00:40:31;;;;;;;2.40;2.20;;;17.50;49.80;;;;;;5012692;28;20079;-63
2022/05/24 00:42:56;;;;;;;2.35;2.13;;;17.50;49.90;;;;;;5014256;28;20033;-63
2022/05/24 00:45:37;;;;;;;2.22;2.00;;;17.40;49.90;;;;;;5014004;28;20040;-63
2022/05/24 00:48:56;;;;;;;2.33;2.13;;;17.40;50.00;;;;;;5014253;28;20380;-64
2022/05/24 00:51:34;;;;;;;5.65;1.98;;;17.40;50.10;;;;;;4990764;28;20044;-64
2022/05/24 00:54:00;;;;;;;2.28;1.83;;;17.40;50.00;;;;;;5014281;28;20034;-63
2022/05/24 00:56:55;;;;;;;2.45;2.22;;;17.40;50.10;;;;;;5012788;28;20030;-63
2022/05/24 00:59:40;;;;;;;2.30;2.10;;;17.40;50.20;;;;;;5013916;28;20032;-63
2022/05/24 01:02:06;;;;;;;2.25;1.98;;;17.30;50.20;;;;;;5013483;28;20069;-63
2022/05/24 01:04:32;;;;;;;3.85;2.08;;;17.30;50.10;;;;;;5013932;28;20452;-63
2022/05/24 01:06:58;;;;;;;2.38;2.17;;;17.30;50.20;;;;;;5014101;28;20057;-63
2022/05/24 01:09:28;;;;;;;2.63;2.10;;;17.30;50.20;;;;;;5014181;28;20065;-63
2022/05/24 01:11:58;;;;;;;2.50;2.30;;;17.30;50.30;;;;;;5013702;28;20030;-63
2022/05/24 01:14:26;;;;;;;2.15;1.95;;;17.30;50.30;;;;;;5012636;28;20428;-64
2022/05/24 01:16:53;;;;;;;2.15;2.00;;;17.30;50.30;;;;;;5013829;28;20062;-63
2022/05/24 01:19:41;;;;;;;2.20;2.00;;;17.30;50.40;;;;;;5014024;28;20364;-63
2022/05/24 01:22:25;;;;;;;2.97;1.98;;;17.20;50.50;;;;;;5014231;28;20427;-64
2022/05/24 01:25:07;;;;;;;2.28;2.08;;;17.20;50.50;;;;;;5017143;28;20026;-64
2022/05/24 01:27:34;;;;;;;2.13;1.80;;;17.30;50.50;;;;;;5017903;28;20038;-63
2022/05/24 01:30:00;;;;;;;2.22;2.03;;;17.20;50.50;;;;;;5017293;28;20096;-63
2022/05/24 01:38:02;;;;;;;2.00;1.90;;;17.20;50.50;;;;;;5017597;28;20384;-63
2022/05/24 01:40:29;;;;;;;2.30;2.10;;;17.10;50.50;;;;;;5016158;28;20172;-63
2022/05/24 01:42:55;;;;;;;2.45;2.08;;;17.10;50.50;;;;;;5017346;28;20048;-63
2022/05/24 01:45:31;;;;;;;2.45;2.10;;;17.10;50.50;;;;;;5017088;28;20516;-63
2022/05/24 01:48:03;;;;;;;2.60;2.10;;;17.10;50.60;;;;;;5017288;28;20182;-63
2022/05/24 01:50:30;;;;;;;2.60;1.90;;;17.10;50.60;;;;;;5017257;28;20018;-63
2022/05/24 01:52:59;;;;;;;2.78;2.20;;;17.10;50.60;;;;;;5017118;28;20113;-63
2022/05/24 01:55:37;;;;;;;2.03;1.83;;;17.10;50.70;;;;;;5015693;28;20084;-63
2022/05/24 01:58:07;;;;;;;2.47;2.15;;;17.10;50.70;;;;;;5015732;28;20088;-64
2022/05/24 02:00:32;;;;;;;2.38;2.13;;;17.10;50.70;;;;;;5016801;28;20037;-63
2022/05/24 02:02:58;;;;;;;2.55;2.00;;;17.10;50.70;;;;;;5016744;28;20025;-63
2022/05/24 02:05:31;;;;;;;2.78;2.28;;;17.00;50.70;;;;;;5015603;28;20496;-63
2022/05/24 02:07:57;;;;;;;2.53;1.88;;;17.00;50.60;;;;;;5016855;28;20037;-63
2022/05/24 02:10:24;;;;;;;2.70;1.98;;;17.00;50.60;;;;;;5015441;28;20362;-63
2022/05/24 02:12:54;;;;;;;2.15;2.00;;;17.00;50.60;;;;;;5016432;28;20026;-63
2022/05/24 02:15:26;;;;;;;2.08;1.80;;;17.00;50.70;;;;;;5016916;28;20092;-64
2022/05/24 02:18:06;;;;;;;2.33;2.13;;;17.00;50.60;;;;;;5015711;28;20058;-64
2022/05/24 02:20:35;;;;;;;3.40;2.03;;;17.00;50.60;;;;;;5015547;28;20026;-63
2022/05/24 02:23:02;;;;;;;2.38;2.17;;;17.00;50.60;;;;;;5015125;28;20033;-63
2022/05/24 02:25:36;;;;;;;2.22;2.03;;;17.00;50.60;;;;;;5014819;28;20049;-63
2022/05/24 02:28:02;;;;;;;2.85;2.22;;;16.90;50.50;;;;;;5016575;28;20022;-63
2022/05/24 02:30:30;;;;;;;2.83;2.10;;;16.90;51.20;;;;;;5015896;28;20034;-64
2022/05/24 02:32:56;;;;;;;2.72;2.33;;;16.90;50.50;;;;;;5016079;28;20214;-63
2022/05/24 02:35:22;;;;;;;2.90;2.00;;;16.90;50.50;;;;;;5015332;28;20061;-63
2022/05/24 02:37:48;;;;;;;3.10;2.10;;;17.00;50.60;;;;;;5016195;28;20022;-64
2022/05/24 02:42:59;;;;;;;2.42;2.22;;;16.90;50.50;;;;;;5016465;28;20531;-63
2022/05/24 02:45:25;;;;;;;2.10;1.92;;;16.90;50.50;;;;;;5016033;28;20042;-63
2022/05/24 02:47:51;;;;;;;4.30;2.20;;;16.90;50.50;;;;;;5016112;28;20472;-63
2022/05/24 02:50:20;;;;;;;2.53;2.30;;;17.00;50.50;;;;;;5015804;28;20129;-63
2022/05/24 02:52:46;;;;;;;2.47;2.13;;;17.00;50.50;;;;;;5016148;28;20104;-63
2022/05/24 02:55:14;;;;;;;2.70;2.20;;;17.00;50.50;;;;;;5016150;28;20101;-63
2022/05/24 02:57:40;;;;;;;2.10;2.00;;;17.00;50.50;;;;;;5015989;28;20030;-62
2022/05/24 03:00:12;;;;;;;2.50;2.30;;;17.00;50.50;;;;;;5014501;28;20060;-64
2022/05/24 03:02:39;;;;;;;2.38;2.17;;;17.00;51.10;;;;;;5015891;28;20392;-62
2022/05/24 03:05:07;;;;;;;3.17;2.40;;;17.00;50.50;;;;;;5015831;28;20444;-62
2022/05/24 03:10:17;;;;;;;2.22;2.03;;;17.00;50.50;;;;;;5015927;28;20053;-64
2022/05/24 03:15:28;;;;;;;2.03;1.90;;;17.00;50.50;;;;;;5015658;28;20534;-63
2022/05/24 03:17:53;;;;;;;2.92;2.00;;;17.10;50.40;;;;;;5015556;28;20472;-64
2022/05/24 03:20:20;;;;;;;2.38;2.10;;;17.10;50.40;;;;;;5015698;28;20065;-63
2022/05/24 03:22:46;;;;;;;2.13;1.92;;;17.10;50.40;;;;;;5014097;28;20117;-63
2022/05/24 03:25:12;;;;;;;2.35;2.15;;;17.10;50.40;;;;;;5014168;28;20483;-63
2022/05/24 03:27:38;;;;;;;2.80;2.20;;;17.10;50.40;;;;;;5014012;28;20028;-65
2022/05/24 03:30:04;;;;;;;2.10;1.90;;;17.10;50.40;;;;;;5014008;28;20113;-64
2022/05/24 03:32:30;;;;;;;2.03;1.90;;;17.10;50.30;;;;;;5015188;28;20057;-64
2022/05/24 03:34:55;;;;;;;2.40;2.20;;;17.10;50.30;;;;;;5015121;28;20195;-64
2022/05/24 03:37:21;;;;;;;2.10;2.00;;;17.10;50.20;;;;;;5013864;28;20056;-63
2022/05/24 03:39:47;;;;;;;2.25;2.05;;;17.20;50.20;;;;;;5015140;28;20037;-62
2022/05/24 03:42:13;;;;;;;2.00;1.90;;;17.20;50.20;;;;;;5014836;28;20038;-63
2022/05/24 03:44:39;;;;;;;2.30;2.10;;;17.20;50.20;;;;;;5014427;28;20030;-64
2022/05/24 03:47:05;;;;;;;2.45;2.13;;;17.20;50.10;;;;;;5015012;28;20411;-64
2022/05/24 03:49:31;;;;;;;3.00;2.00;;;17.20;50.00;;;;;;5013708;28;20121;-63
2022/05/24 03:51:57;;;;;;;2.25;2.05;;;17.20;50.20;;;;;;5015164;28;20036;-63
2022/05/24 03:54:23;;;;;;;2.78;1.90;;;17.20;49.90;;;;;;5014840;28;20034;-63
2022/05/24 03:59:40;;;;;;;2.28;2.08;;;17.30;49.90;;;;;;5029029;28;20388;-63
2022/05/24 04:02:06;;;;;;;2.10;1.90;;;17.30;49.80;;;;;;5012998;28;20034;-64
2022/05/24 04:04:32;;;;;;;2.38;2.17;;;17.30;49.70;;;;;;5014511;28;20117;-64
2022/05/24 04:06:58;;;;;;;2.63;2.22;;;17.30;49.70;;;;;;5014499;28;20085;-64
2022/05/24 04:09:23;;;;;;;2.53;2.00;;;17.30;49.60;;;;;;5013792;28;20048;-63
2022/05/24 04:11:49;;;;;;;3.97;2.20;;;17.40;49.60;;;;;;5013866;28;20092;-65
2022/05/24 04:14:15;;;;;;;2.30;2.10;;;17.40;49.50;;;;;;5013219;28;20033;-64
2022/05/24 04:16:41;;;;;;;2.30;2.10;;;17.40;49.40;;;;;;5014158;28;20030;-63
2022/05/24 04:19:06;;;;;;;2.20;1.90;;;17.40;49.30;;;;;;5014354;28;20431;-63
2022/05/24 04:21:32;;;;;;;2.17;1.98;;;17.40;49.20;;;;;;5014472;28;20034;-64
2022/05/24 04:23:58;;;;;;;2.40;2.05;;;17.40;49.20;;;;;;5013922;28;20034;-64
2022/05/24 04:26:24;;;;;;;2.47;2.10;;;17.50;49.20;;;;;;5014222;28;20108;-63
2022/05/24 04:28:50;;;;;;;1.90;1.80;;;17.50;49.10;;;;;;5014352;28;20041;-64
2022/05/24 04:31:15;;;;;;;1.95;1.85;;;17.50;49.00;;;;;;5014073;28;20036;-63
2022/05/24 04:33:41;;;;;;;2.28;2.08;;;17.50;49.00;;;;;;5014524;28;20029;-64
2022/05/24 04:36:07;;;;;;;2.45;2.10;;;17.50;48.90;;;;;;5029537;28;20399;-64
2022/05/24 04:38:33;;;;;;;2.10;1.92;;;17.50;48.80;;;;;;5028941;28;20022;-64
2022/05/24 04:43:43;;;;;;;1.83;1.73;;;17.60;48.70;;;;;;5014700;28;20067;-64
2022/05/24 04:46:08;;;;;;;2.50;2.10;;;17.60;48.60;;;;;;5012753;28;20026;-69
2022/05/24 04:48:34;;;;;;;1.80;1.70;;;17.60;48.50;;;;;;5011524;28;20115;-66
2022/05/24 04:51:00;;;;;;;2.38;1.95;;;17.60;48.50;;;;;;5012469;28;20033;-65
2022/05/24 04:53:27;;;;;;;3.17;1.80;;;17.70;48.50;;;;;;5014530;28;20069;-66
2022/05/24 04:55:53;;;;;;;1.70;1.60;;;17.70;48.40;;;;;;5020586;28;20026;-65
2022/05/24 04:58:19;;;;;;;2.22;2.03;;;17.70;48.30;;;;;;5022060;28;20084;-65
2022/05/24 05:00:46;;;;;;;2.30;2.00;;;17.70;48.20;;;;;;5031225;28;20030;-65
2022/05/24 05:03:14;;;;;;;2.05;1.95;;;17.80;48.20;;;;;;5033574;28;20379;-66
2022/05/24 05:05:41;;;;;;;1.77;1.67;;;17.80;48.20;;;;;;5032065;28;20068;-66
2022/05/24 05:08:07;;;;;;;2.20;2.00;;;17.80;48.10;;;;;;5033939;28;20017;-66
2022/05/24 05:10:34;;;;;;;1.90;1.80;;;17.80;48.00;;;;;;5032215;28;20025;-66
2022/05/24 05:13:01;;;;;;;2.15;1.95;;;17.90;48.00;;;;;;5033468;28;20033;-66
2022/05/24 05:15:27;;;;;;;3.13;2.10;;;17.90;47.90;;;;;;5029914;28;20038;-68
2022/05/24 05:18:04;;;;;;;2.00;1.77;;;17.90;48.00;;;;;;5033203;28;20025;-71
2022/05/24 05:20:30;;;;;;;2.10;1.80;;;18.00;48.00;;;;;;5033079;28;20028;-65
2022/05/24 05:22:56;;;;;;;2.25;2.08;;;18.00;48.20;;;;;;5032591;28;20368;-66
2022/05/24 05:25:21;;;;;;;1.90;1.75;;;18.10;48.30;;;;;;5027228;28;20121;-67
2022/05/24 05:27:47;;;;;;;2.70;1.75;;;18.10;48.50;;;;;;5013006;28;20468;-67
2022/05/24 05:32:57;;;;;;;4.88;1.90;;;18.30;48.70;;;;;;5015136;28;20080;-67
2022/05/24 05:35:23;;;;;;;3.17;2.25;;;18.30;48.60;;;;;;5011362;28;20046;-67
2022/05/24 05:37:48;;;;;;;1.80;1.70;;;18.40;48.50;;;;;;5009961;28;20026;-68
2022/05/24 05:40:14;;;;;;;2.75;1.90;;;18.40;48.40;;;;;;5012003;28;20026;-67
2022/05/24 05:42:40;;;;;;;2.13;1.80;;;18.50;48.50;;;;;;5011897;28;20040;-66
2022/05/24 05:45:10;;;;;;;2.15;1.95;;;18.50;48.50;;;;;;5012538;28;20125;-69
2022/05/24 05:47:36;;;;;;;1.98;1.80;;;18.50;48.50;;;;;;5012512;28;20037;-69
2022/05/24 05:50:03;;;;;;;2.10;1.90;;;18.60;48.50;;;;;;5012889;28;20120;-66
2022/05/24 05:52:28;;;;;;;2.67;1.98;;;18.70;48.20;;;;;;5013410;28;20026;-67
2022/05/24 05:54:54;;;;;;;2.00;1.88;;;18.70;48.20;;;;;;5013274;28;20369;-66
2022/05/24 05:57:20;;;;;;;1.90;1.80;;;18.80;48.20;;;;;;5012072;28;20380;-67
2022/05/24 05:59:46;;;;;;;2.33;2.10;;;18.80;48.20;;;;;;5013286;28;20022;-67
2022/05/24 06:02:11;;;;;;;1.83;1.73;;;18.80;48.10;;;;;;5011890;28;20034;-67
2022/05/24 06:04:37;;;;;;;1.83;1.73;;;18.90;48.00;;;;;;5012999;28;20026;-67
2022/05/24 06:07:04;;;;;;;6.07;1.98;;;18.90;48.00;;;;;;5011897;28;20104;-67
2022/05/24 06:09:31;;;;;;;2.35;1.90;;;19.00;47.90;;;;;;5014892;28;20026;-66
2022/05/24 06:11:56;;;;;;;2.78;2.10;;;19.00;47.80;;;;;;5015397;28;20033;-66
2022/05/24 06:14:22;;;;;;;2.83;1.83;;;19.00;47.70;;;;;;5016380;28;20025;-67
2022/05/24 06:16:48;;;;;;;2.72;1.98;;;19.10;47.70;;;;;;5015478;28;20434;-66
2022/05/24 06:19:13;;;;;;;2.20;2.00;;;19.10;47.60;;;;;;5016600;28;20022;-66
2022/05/24 06:21:39;;;;;;;1.98;1.88;;;19.20;47.50;;;;;;5016718;28;20083;-67
2022/05/24 06:24:06;;;;;;;1.92;1.83;;;19.20;47.00;;;;;;5016402;28;20037;-67
2022/05/24 06:26:33;;;;;;;2.10;1.90;;;19.20;47.00;;;;;;5016674;28;20049;-67
2022/05/24 06:28:59;;;;;;;1.90;1.80;;;19.20;46.90;;;;;;5014867;28;20088;-67
2022/05/24 06:31:25;;;;;;;2.30;1.83;;;19.30;46.80;;;;;;5016339;28;20026;-67
2022/05/24 06:33:50;;;;;;;2.20;1.75;;;19.30;46.60;;;;;;5016164;28;20418;-67
2022/05/24 06:36:17;;;;;;;1.90;1.80;;;19.30;45.80;;;;;;5014941;28;20033;-67
2022/05/24 06:38:42;;;;;;;1.70;1.60;;;19.30;45.70;;;;;;5014564;28;20033;-67
2022/05/24 06:41:08;;;;;;;2.13;1.92;;;19.30;45.80;;;;;;5016303;28;20029;-67
2022/05/24 06:43:35;;;;;;;2.10;1.90;;;19.30;45.80;;;;;;5015907;28;20022;-67
2022/05/24 06:46:07;;;;;;;1.83;1.70;;;19.40;45.90;;;;;;5016385;28;20383;-67
2022/05/24 06:48:37;;;;;;;2.40;1.85;;;19.40;45.60;;;;;;5014942;28;20040;-67
2022/05/24 06:51:10;;;;;;;1.80;1.70;;;19.40;45.50;;;;;;5014657;28;20386;-67
2022/05/24 06:53:37;;;;;;;1.83;1.60;;;19.50;45.30;;;;;;5014756;28;20396;-66
2022/05/24 06:56:03;;;;;;;2.28;1.90;;;19.50;45.30;;;;;;5015702;28;20037;-67
2022/05/24 06:58:28;;;;;;;3.92;1.90;;;19.50;45.10;;;;;;5015302;28;20038;-67
2022/05/24 07:03:38;;;;;;;2.25;1.50;;;19.60;44.70;;;;;;5015456;28;20491;-69
2022/05/24 07:06:05;;;;;;;2.10;1.90;;;19.60;44.30;;;;;;5015550;28;20031;-66
2022/05/24 07:08:30;;;;;;;1.95;1.67;;;19.60;44.30;;;;;;5015808;28;20029;-66
2022/05/24 07:10:56;;;;;;;3.53;1.90;;;19.60;44.40;;;;;;5015830;28;20034;-66
2022/05/24 07:13:22;;;;;;;4.30;2.05;;;19.60;44.40;;;;;;5015352;28;20034;-66
2022/05/24 07:15:48;;;;;;;1.92;1.75;;;19.70;44.20;;;;;;5015171;28;20030;-67
2022/05/24 07:18:14;;;;;;;1.90;1.80;;;19.70;44.10;;;;;;5015736;28;20029;-65
2022/05/24 07:20:41;;;;;;;3.15;1.70;;;19.70;44.00;;;;;;5014769;28;20415;-68
2022/05/24 07:23:11;;;;;;;2.25;1.98;;;19.70;43.90;;;;;;5013921;28;20391;-66
2022/05/24 07:25:39;;;;;;;2.30;1.90;;;19.70;43.70;;;;;;5015148;28;20046;-66
2022/05/24 07:28:05;;;;;;;2.08;1.80;;;19.80;43.60;;;;;;5014530;28;20053;-66
2022/05/24 07:30:31;;;;;;;2.20;2.00;;;19.80;43.40;;;;;;5015290;28;20060;-66
2022/05/24 07:32:59;;;;;;;1.73;1.60;;;19.80;43.20;;;;;;5014767;28;20045;-66
2022/05/24 07:35:25;;;;;;;1.75;1.65;;;19.90;43.20;;;;;;5013699;28;20062;-66
2022/05/24 07:37:50;;;;;;;1.80;1.70;;;19.90;43.10;;;;;;5013397;28;20428;-66
2022/05/24 07:48:10;;;;;;;1.90;1.80;;;20.00;42.50;;;;;;5014579;28;20037;-66
2022/05/24 07:50:37;;;;;;;1.67;1.58;;;20.00;42.40;;;;;;5013738;28;20022;-66
2022/05/24 07:53:02;;;;;;;1.45;1.35;;;20.00;42.30;;;;;;5013308;28;20033;-67
2022/05/24 07:55:28;;;;;;;2.55;1.80;;;20.00;42.20;;;;;;5013587;28;20030;-66
2022/05/24 07:57:54;;;;;;;1.77;1.60;;;20.00;42.00;;;;;;5014587;28;20034;-66
2022/05/24 08:00:21;;;;;;;1.80;1.70;;;20.10;41.90;;;;;;5014801;28;20484;-67
2022/05/24 08:02:50;;;;;;;3.42;1.90;;;20.10;41.60;;;;;;5014587;28;20030;-66
2022/05/24 08:05:17;;;;;;;1.67;1.50;;;20.10;41.60;;;;;;5014706;28;20026;-66
2022/05/24 08:07:45;;;;;;;2.65;2.00;;;20.10;41.50;;;;;;5014453;28;20076;-66
2022/05/24 08:10:11;;;;;;;1.98;1.63;;;20.10;41.20;;;;;;5015173;28;20026;-66
2022/05/24 08:12:37;;;;;;;1.77;1.67;;;20.10;41.30;;;;;;5013074;28;20042;-67
2022/05/24 08:15:03;;;;;;;2.22;1.95;;;20.20;41.20;;;;;;5014555;28;20473;-66
2022/05/24 08:17:28;;;;;;;1.60;1.50;;;20.10;41.00;;;;;;5012901;28;20026;-66
2022/05/24 08:19:54;;;;;;;1.65;1.55;;;20.20;41.00;;;;;;5014031;28;20041;-66
2022/05/24 08:22:20;;;;;;;1.95;1.75;;;20.20;41.00;;;;;;5014339;28;20088;-66
2022/05/24 08:24:46;;;;;;;1.80;1.70;;;20.20;40.70;;;;;;5013162;28;20025;-66
2022/05/24 08:27:14;;;;;;;1.58;1.48;;;20.20;40.60;;;;;;5014092;28;20052;-66
2022/05/24 08:29:40;;;;;;;2.17;1.65;;;20.20;40.50;;;;;;5013773;28;20092;-66
2022/05/24 08:32:07;;;;;;;1.60;1.50;;;20.20;40.40;;;;;;5012899;28;20038;-66
2022/05/24 08:34:33;;;;;;;2.00;1.70;;;20.30;40.40;;;;;;5014054;28;20040;-65
2022/05/24 08:36:59;;;;;;;1.77;1.67;;;20.30;40.20;;;;;;5014014;28;20116;-64
2022/05/24 08:39:25;;;;;;;2.85;1.63;;;20.30;40.10;;;;;;5014135;28;20022;-64
2022/05/24 08:41:51;;;;;;;1.60;1.50;;;20.30;40.10;;;;;;5015058;28;20037;-66
2022/05/24 08:50:13;;;;;;;1.50;1.40;;;20.30;39.90;;;;;;5013712;28;20130;-64
2022/05/24 08:52:57;;;;;;;1.40;1.30;;;20.30;40.00;;;;;;5013419;28;20034;-65
2022/05/24 08:55:24;;;;;;;1.88;1.65;;;20.30;39.60;;;;;;5029506;28;20053;-64
2022/05/24 08:57:56;;;;;;;1.98;1.77;;;20.30;39.80;;;;;;5028961;28;20026;-64
2022/05/24 09:00:32;;;;;;;2.78;1.75;;;20.30;39.70;;;;;;5013859;28;20057;-65
2022/05/24 09:02:58;;;;;;;1.70;1.60;;;20.30;39.50;;;;;;5028823;28;20526;-64
2022/05/24 09:05:35;;;;;;;1.70;1.60;;;20.30;39.50;;;;;;5013350;28;20030;-64
2022/05/24 09:08:22;;;;;;;3.25;1.58;;;20.30;39.40;;;;;;5013776;28;20415;-65
2022/05/24 09:11:11;;;;;;;2.38;1.48;;;20.30;39.50;;;;;;5013923;28;20097;-64
2022/05/24 09:14:01;;;;;;;1.70;1.60;;;20.30;39.50;;;;;;5013506;28;20045;-66
2022/05/24 09:16:39;;;;;;;1.77;1.58;;;20.40;39.40;;;;;;5029426;28;20444;-65
2022/05/24 09:19:15;;;;;;;1.65;1.50;;;20.50;39.40;;;;;;5013748;28;20037;-65
2022/05/24 09:21:43;;;;;;;2.03;1.63;;;20.50;39.40;;;;;;5013585;28;20029;-65
2022/05/24 09:24:30;;;;;;;3.10;1.77;;;20.50;39.40;;;;;;5013600;28;20479;-65
2022/05/24 09:27:22;;;;;;;1.60;1.50;;;20.60;38.80;;;;;;5013627;28;20050;-65
2022/05/24 09:30:02;;;;;;;1.70;1.60;;;20.60;38.80;;;;;;5028857;28;20109;-64
2022/05/24 09:32:37;;;;;;;2.13;1.55;;;20.60;39.10;;;;;;5028301;28;20034;-65
2022/05/24 09:35:25;;;;;;;1.80;1.70;;;20.60;39.10;;;;;;5013445;28;20026;-64
2022/05/24 09:38:02;;;;;;;1.90;1.48;;;20.60;38.50;;;;;;5028743;28;20061;-65
2022/05/24 09:40:28;;;;;;;2.97;1.80;;;20.70;38.90;;;;;;5013422;28;20353;-65
2022/05/24 09:42:53;;;;;;;2.00;1.80;;;20.60;39.00;;;;;;5013927;28;20041;-65
2022/05/24 09:45:26;;;;;;;2.20;1.95;;;20.70;39.00;;;;;;5017237;28;20105;-65
2022/05/24 09:47:58;;;;;;;1.58;1.45;;;20.70;39.00;;;;;;5017352;28;20030;-65
2022/05/24 09:50:35;;;;;;;1.50;1.40;;;20.70;38.90;;;;;;5031991;28;20087;-65
2022/05/24 09:53:12;;;;;;;1.60;1.50;;;20.70;38.70;;;;;;5016929;28;20034;-66
2022/05/24 09:55:59;;;;;;;2.67;1.65;;;20.70;38.90;;;;;;5032032;28;20034;-65
2022/05/24 09:58:31;;;;;;;2.38;1.50;;;20.70;38.20;;;;;;5017012;28;20057;-64
2022/05/24 10:01:11;;;;;;;1.55;1.45;;;20.70;39.30;;;;;;5031891;28;20466;-65
2022/05/24 10:03:39;;;;;;;1.63;1.52;;;20.60;38.10;;;;;;5031990;28;20473;-65
2022/05/24 10:06:30;;;;;;;1.67;1.58;;;20.70;38.60;;;;;;5016552;28;20072;-64
2022/05/24 10:08:59;;;;;;;1.50;1.40;;;20.70;38.60;;;;;;5016862;28;20488;-64
2022/05/24 10:11:40;;;;;;;2.33;1.42;;;20.70;38.60;;;;;;5016568;28;20471;-65
2022/05/24 10:14:27;;;;;;;1.65;1.55;;;20.70;38.30;;;;;;5016339;28;20439;-64
2022/05/24 10:17:11;;;;;;;3.10;1.83;;;20.70;38.40;;;;;;5016359;28;20030;-65
2022/05/24 10:19:55;;;;;;;1.60;1.50;;;20.70;38.40;;;;;;5016378;28;20492;-65
2022/05/24 10:22:23;;;;;;;1.70;1.60;;;20.80;38.40;;;;;;5031624;28;20037;-64
2022/05/24 10:25:14;;;;;;;5.95;1.60;;;20.80;38.30;;;;;;5016700;28;20033;-64
2022/05/24 10:27:51;;;;;;;1.60;1.50;;;20.80;37.70;;;;;;5016152;28;20133;-65
2022/05/24 10:30:29;;;;;;;2.42;1.85;;;20.80;38.10;;;;;;5015296;28;20491;-65
2022/05/24 10:39:45;;;;;;;2.38;1.50;;;20.80;37.60;;;;;;5016361;28;20076;-66
2022/05/24 10:42:13;;;;;;;1.20;1.20;;;20.80;37.90;;;;;;5031636;28;20033;-65
2022/05/24 10:44:42;;;;;;;1.50;1.40;;;20.80;37.90;;;;;;5015709;28;20026;-66
2022/05/24 10:47:21;;;;;;;1.63;1.52;;;20.90;37.90;;;;;;5015379;28;20124;-64
2022/05/24 10:49:50;;;;;;;1.55;1.45;;;20.90;37.70;;;;;;5016075;28;20100;-65
2022/05/24 10:52:22;;;;;;;1.50;1.40;;;20.90;37.80;;;;;;5030761;28;20060;-64
2022/05/24 10:55:18;;;;;;;1.70;1.60;;;20.90;37.60;;;;;;5014755;28;20096;-64
2022/05/24 10:57:55;;;;;;;2.00;1.80;;;20.90;37.10;;;;;;5015597;28;20080;-64
2022/05/24 11:00:41;;;;;;;1.60;1.50;;;21.00;37.50;;;;;;5015328;28;20026;-66
2022/05/24 11:03:15;;;;;;;2.10;1.70;;;20.90;36.90;;;;;;5015606;28;20050;-63
2022/05/24 11:05:59;;;;;;;1.60;1.50;;;20.90;37.40;;;;;;5030709;28;20025;-66
2022/05/24 11:08:46;;;;;;;1.60;1.48;;;21.00;37.40;;;;;;5030813;28;20072;-64
2022/05/24 11:11:55;;;;;;;1.65;1.50;;;21.00;37.40;;;;;;5015743;28;20096;-64
2022/05/24 11:14:30;;;;;;;1.50;1.40;;;21.00;37.50;;;;;;5017204;28;20078;-65
2022/05/24 11:16:57;;;;;;;1.75;1.50;;;21.00;37.20;;;;;;5015907;28;20061;-64
2022/05/24 11:19:35;;;;;;;1.52;1.42;;;21.00;37.20;;;;;;5030514;28;20029;-64
2022/05/24 11:22:28;;;;;;;1.38;1.27;;;21.10;37.00;;;;;;5015470;28;20026;-64
2022/05/24 11:25:06;;;;;;;2.38;1.55;;;21.10;36.70;;;;;;5030590;28;20058;-64
2022/05/24 11:27:38;;;;;;;1.45;1.30;;;21.10;36.80;;;;;;5015710;28;20060;-64
2022/05/24 11:30:13;;;;;;;1.50;1.40;;;21.10;36.90;;;;;;5030406;28;20026;-64
2022/05/24 11:32:52;;;;;;;2.08;1.40;;;21.10;36.90;;;;;;5029879;28;20030;-64
2022/05/24 11:35:18;;;;;;;1.52;1.40;;;21.10;36.80;;;;;;5030186;28;20029;-64
2022/05/24 11:37:51;;;;;;;1.60;1.50;;;21.10;36.90;;;;;;5015338;28;20022;-65
2022/05/24 11:40:36;;;;;;;1.77;1.67;;;21.10;36.90;;;;;;5014890;28;20022;-64
2022/05/24 11:43:39;;;;;;;2.72;1.50;;;21.20;36.40;;;;;;5015113;28;20029;-63
2022/05/24 11:46:07;;;;;;;1.80;1.70;;;21.20;36.20;;;;;;5030089;28;20033;-64
2022/05/24 11:48:54;;;;;;;2.35;1.50;;;21.20;36.60;;;;;;5014753;28;20026;-64
2022/05/24 11:51:50;;;;;;;1.27;1.20;;;21.30;36.30;;;;;;5014746;28;20118;-65
2022/05/24 11:54:19;;;;;;;1.88;1.50;;;21.30;36.40;;;;;;5014546;28;20469;-64
2022/05/24 11:57:02;;;;;;;1.30;1.20;;;21.30;36.50;;;;;;5015169;28;20366;-64
2022/05/24 11:59:40;;;;;;;1.33;1.23;;;21.30;35.90;;;;;;5029798;28;20025;-64
2022/05/24 12:02:32;;;;;;;1.63;1.40;;;21.30;36.10;;;;;;5014407;28;20029;-64
2022/05/24 12:07:54;;;;;;;1.45;1.35;;;21.40;36.20;;;;;;5014368;28;20033;-64
2022/05/24 12:10:26;;;;;;;1.10;1.10;;;21.40;36.80;;;;;;5013117;28;20032;-65
2022/05/24 12:13:03;;;;;;;1.10;1.10;;;21.50;36.10;;;;;;5013931;28;20045;-65
2022/05/24 12:15:33;;;;;;;1.35;1.25;;;21.50;35.70;;;;;;5014414;28;20057;-64
2022/05/24 12:17:59;;;;;;;1.50;1.40;;;21.60;35.90;;;;;;5029737;28;20034;-65
2022/05/24 12:20:33;;;;;;;1.40;1.30;;;21.60;35.80;;;;;;5014332;28;20022;-64
2022/05/24 12:23:09;;;;;;;1.45;1.35;;;21.70;35.70;;;;;;5014209;28;20041;-64
2022/05/24 12:25:55;;;;;;;1.52;1.30;;;21.70;35.60;;;;;;5014151;28;20025;-65
2022/05/24 12:28:31;;;;;;;1.60;1.40;;;21.80;35.30;;;;;;5014232;28;20076;-65
2022/05/24 12:30:58;;;;;;;1.42;1.33;;;21.80;35.50;;;;;;5014080;28;20053;-65
2022/05/24 12:33:38;;;;;;;1.35;1.25;;;22.00;35.60;;;;;;5013949;28;20033;-65
2022/05/24 12:36:06;;;;;;;1.55;1.10;;;22.00;35.20;;;;;;5014288;28;20022;-65
2022/05/24 12:38:35;;;;;;;1.05;1.05;;;22.10;35.40;;;;;;5013834;28;20026;-65
2022/05/24 12:41:18;;;;;;;1.35;1.25;;;22.20;35.40;;;;;;5029274;28;20034;-65
2022/05/24 12:44:02;;;;;;;1.05;1.05;;;22.30;35.10;;;;;;5013817;28;20526;-65
2022/05/24 12:46:34;;;;;;;2.65;1.48;;;22.30;35.10;;;;;;5014233;28;20072;-65
2022/05/24 12:49:05;;;;;;;1.85;1.38;;;22.40;35.30;;;;;;5014257;28;20105;-65
2022/05/24 12:51:30;;;;;;;1.45;1.35;;;22.50;35.20;;;;;;5029224;28;20032;-65
2022/05/24 12:54:12;;;;;;;1.67;1.58;;;22.60;35.10;;;;;;5013749;28;20026;-65
2022/05/24 12:56:37;;;;;;;1.50;1.10;;;22.80;34.80;;;;;;5028901;28;20080;-65
2022/05/24 12:59:11;;;;;;;1.27;1.20;;;22.90;34.90;;;;;;5014025;28;20034;-65
2022/05/24 13:01:41;;;;;;;;;;;23.00;34.60;;;;;;5014054;28;20468;-65
2022/05/24 13:04:20;;;;;;;2.85;1.02;;;23.10;33.70;;;;;;5013628;28;19906;-65
2022/05/24 13:06:48;;;;;;;1.52;1.20;;;23.30;34.40;;;;;;5028686;28;20087;-65
2022/05/24 13:09:41;;;;;;;1.40;1.30;;;23.40;34.40;;;;;;5028564;28;20022;-65
2022/05/24 13:12:10;;;;;;;2.28;1.38;;;23.60;33.70;;;;;;5013774;28;20045;-64
2022/05/24 13:14:51;;;;;;;2.03;1.58;;;23.70;34.10;;;;;;5013576;28;20034;-65
2022/05/24 13:17:20;;;;;;;1.50;1.40;;;23.90;33.90;;;;;;5028577;28;20030;-64
2022/05/24 13:19:54;;;;;;;1.60;1.50;;;24.00;34.00;;;;;;5032405;28;20084;-65
2022/05/24 13:22:21;;;;;;;;;;;24.20;33.80;;;;;;5017832;28;20034;-64
2022/05/24 13:24:51;;;;;;;1.50;1.30;;;24.30;33.00;;;;;;5017444;28;19909;-64
2022/05/24 13:27:17;;;;;;;1.48;1.30;;;24.50;33.80;;;;;;5032514;28;20054;-64
2022/05/24 13:35:26;;;;;;;1.42;1.33;;;25.30;33.80;;;;;;5017272;28;20566;-64
2022/05/24 13:37:54;;;;;;;1.33;1.23;;;25.70;33.50;;;;;;5017090;28;20029;-64
2022/05/24 13:40:39;;;;;;;1.65;1.30;;;26.20;33.20;;;;;;5016774;28;20025;-64
2022/05/24 13:43:05;;;;;;;1.90;1.40;;;26.90;32.70;;;;;;5016752;28;20112;-64
2022/05/24 13:45:33;;;;;;;1.40;1.30;;;27.60;32.70;;;;;;5016928;28;20112;-66
2022/05/24 13:48:01;;;;;;;2.00;1.38;;;28.30;32.40;;;;;;5016742;28;20033;-64
2022/05/24 13:50:29;;;;;;;1.30;1.20;;;29.10;32.30;;;;;;5031887;28;20149;-64
2022/05/24 13:53:07;;;;;;;2.33;1.50;;;29.80;32.10;;;;;;5031501;28;20441;-64
2022/05/24 13:55:38;;;;;;;1.55;1.40;;;30.60;31.90;;;;;;5015971;28;20496;-64
2022/05/24 13:58:09;;;;;;;1.05;0.95;;;31.30;31.80;;;;;;5017137;28;20029;-65
2022/05/24 14:00:51;;;;;;;1.17;1.10;;;32.10;31.80;;;;;;5016602;28;20062;-65